createdAt,value
2022-10-05T01:58:45.417Z,2.50
2022-10-05T02:01:18.385Z,2.30
2022-10-05T02:03:57.200Z,2.40
2022-10-05T02:06:28.038Z,2.47
2022-10-05T02:09:04.947Z,2.30
2022-10-05T02:11:33.358Z,2.75
2022-10-05T02:14:07.556Z,2.25
2022-10-05T02:16:46.939Z,2.83
2022-10-05T02:19:34.350Z,2.55
2022-10-05T02:22:09.098Z,2.53
2022-10-05T02:24:44.607Z,3.22
2022-10-05T02:27:17.493Z,2.72
2022-10-05T02:29:48.303Z,2.88
2022-10-05T02:32:24.019Z,3.00
2022-10-05T02:34:50.919Z,2.83
2022-10-05T02:37:38.847Z,2.83
2022-10-05T02:40:05.406Z,2.30
2022-10-05T02:43:04.361Z,2.50
2022-10-05T02:45:33.706Z,2.50
2022-10-05T02:48:23.210Z,2.70
2022-10-05T02:50:59.152Z,2.20
2022-10-05T02:54:03.934Z,3.45
2022-10-05T02:56:42.072Z,2.25
2022-10-05T02:59:26.432Z,2.33
2022-10-05T03:02:00.573Z,2.38
2022-10-05T03:04:35.927Z,2.08
2022-10-05T03:07:07.836Z,2.30
2022-10-05T03:09:42.381Z,2.17
2022-10-05T03:12:30.932Z,2.35
2022-10-05T03:15:11.134Z,2.67
2022-10-05T03:18:07.350Z,2.50
2022-10-05T03:20:44.207Z,2.40
2022-10-05T03:23:25.190Z,2.22
2022-10-05T03:25:54.483Z,2.40
2022-10-05T03:28:31.989Z,2.30
2022-10-05T03:31:04.879Z,2.50
2022-10-05T03:33:34.395Z,2.20
2022-10-05T03:36:25.187Z,2.10
2022-10-05T03:39:10.711Z,1.90
2022-10-05T03:41:42.712Z,2.50
2022-10-05T03:44:25.278Z,1.90
2022-10-05T03:46:54.798Z,2.10
2022-10-05T03:49:46.076Z,2.10
2022-10-05T03:52:12.672Z,2.00
2022-10-05T03:54:45.859Z,1.98
2022-10-05T04:00:04.895Z,1.92
2022-10-05T04:02:37.119Z,1.80
2022-10-05T04:05:19.147Z,1.98
2022-10-05T04:07:52.228Z,2.00
2022-10-05T04:10:43.190Z,2.35
2022-10-05T04:13:21.564Z,1.98
2022-10-05T04:16:12.449Z,2.00
2022-10-05T04:18:56.438Z,1.75
2022-10-05T04:21:31.388Z,2.00
2022-10-05T04:24:14.503Z,1.90
2022-10-05T04:26:50.728Z,2.00
2022-10-05T04:29:41.447Z,2.15
2022-10-05T04:32:10.731Z,2.10
2022-10-05T04:34:40.021Z,2.40
2022-10-05T04:37:18.239Z,2.50
2022-10-05T04:40:01.568Z,1.88
2022-10-05T04:42:40.275Z,2.10
2022-10-05T04:45:39.354Z,1.80
2022-10-05T04:48:22.550Z,1.90
2022-10-05T04:51:11.971Z,1.85
2022-10-05T04:54:05.171Z,1.90
2022-10-05T04:56:46.280Z,1.85
2022-10-05T04:59:34.587Z,1.80
2022-10-05T05:02:23.040Z,1.70
2022-10-05T05:05:01.557Z,1.98
2022-10-05T05:07:33.899Z,2.00
2022-10-05T05:10:19.652Z,2.00
2022-10-05T05:12:49.018Z,2.17
2022-10-05T05:15:18.195Z,1.88
2022-10-05T05:18:06.070Z,2.05
2022-10-05T05:20:47.891Z,2.30
2022-10-05T05:23:26.658Z,2.22
2022-10-05T05:26:19.251Z,2.10
2022-10-05T05:29:23.035Z,2.08
2022-10-05T05:31:54.014Z,2.17
2022-10-05T05:34:39.348Z,2.08
2022-10-05T05:37:32.184Z,2.42
2022-10-05T05:40:16.480Z,2.40
2022-10-05T05:43:20.621Z,2.65
2022-10-05T05:46:02.060Z,2.13
2022-10-05T05:48:41.344Z,2.28
2022-10-05T05:51:14.210Z,3.00
2022-10-05T05:53:44.509Z,2.42
2022-10-05T05:56:17.662Z,2.63
2022-10-05T05:58:54.767Z,2.35
2022-10-05T06:01:34.011Z,2.85
2022-10-05T06:04:13.231Z,2.70
2022-10-05T06:06:44.819Z,2.53
2022-10-05T06:09:24.662Z,2.70
2022-10-05T06:11:53.531Z,2.92
2022-10-05T06:14:44.689Z,2.50
2022-10-05T06:17:18.403Z,2.78
2022-10-05T06:19:47.126Z,2.50
2022-10-05T06:22:22.432Z,2.92
2022-10-05T06:25:12.953Z,2.70
2022-10-05T06:28:01.759Z,2.70
2022-10-05T06:30:58.578Z,2.67
2022-10-05T06:33:52.325Z,2.90
2022-10-05T06:39:22.351Z,3.17
2022-10-05T06:42:04.075Z,3.20
2022-10-05T06:44:39.504Z,3.20
2022-10-05T06:47:21.910Z,3.10
2022-10-05T06:50:13.368Z,3.00
2022-10-05T06:52:57.890Z,3.33
2022-10-05T06:55:30.791Z,3.25
2022-10-05T06:58:19.187Z,3.38
2022-10-05T07:01:20.136Z,3.80
2022-10-05T07:03:58.644Z,3.40
2022-10-05T07:06:57.524Z,2.85
2022-10-05T07:09:41.232Z,4.43
2022-10-05T07:12:22.859Z,4.22
2022-10-05T07:14:56.776Z,4.38
2022-10-05T07:17:23.307Z,4.57
2022-10-05T07:20:16.377Z,4.70
2022-10-05T07:22:54.964Z,4.55
2022-10-05T07:25:30.623Z,4.32
2022-10-05T07:28:05.529Z,4.43
2022-10-05T07:30:45.814Z,5.75
2022-10-05T07:33:37.758Z,5.70
2022-10-05T07:36:31.150Z,5.78
2022-10-05T07:39:19.814Z,5.43
2022-10-05T07:41:56.979Z,5.45
2022-10-05T07:44:33.360Z,5.40
2022-10-05T07:47:15.742Z,4.80
2022-10-05T07:49:59.660Z,4.40
2022-10-05T07:52:32.385Z,4.70
2022-10-05T07:55:19.558Z,4.00
2022-10-05T07:57:57.950Z,3.90
2022-10-05T08:00:27.593Z,4.35
2022-10-05T08:03:10.162Z,3.92
2022-10-05T08:05:41.813Z,4.17
2022-10-05T08:08:13.180Z,3.25
2022-10-05T08:10:50.050Z,3.53
2022-10-05T08:13:33.572Z,3.97
2022-10-05T08:18:56.802Z,2.83
2022-10-05T08:21:31.010Z,3.63
2022-10-05T08:24:30.751Z,3.17
2022-10-05T08:27:32.310Z,2.83
2022-10-05T08:30:01.940Z,2.80
2022-10-05T08:32:35.651Z,2.67
2022-10-05T08:35:37.988Z,2.88
2022-10-05T08:38:32.730Z,2.33
2022-10-05T08:41:33.157Z,2.30
2022-10-05T08:44:07.797Z,2.28
2022-10-05T08:47:11.767Z,2.15
2022-10-05T08:49:47.932Z,1.50
2022-10-05T08:52:43.731Z,2.10
2022-10-05T08:55:10.276Z,2.33
2022-10-05T08:57:48.683Z,2.05
2022-10-05T09:00:18.398Z,1.90
2022-10-05T09:03:23.455Z,1.80
2022-10-05T09:06:10.702Z,1.80
2022-10-05T09:08:55.618Z,1.70
2022-10-05T09:11:37.259Z,2.22
2022-10-05T09:14:56.426Z,2.40
2022-10-05T09:17:44.717Z,2.38
2022-10-05T09:20:15.157Z,2.55
2022-10-05T09:23:25.126Z,2.65
2022-10-05T09:26:00.682Z,2.20
2022-10-05T09:28:55.789Z,2.30
2022-10-05T09:31:40.997Z,2.65
2022-10-05T09:34:26.079Z,2.70
2022-10-05T09:37:29.674Z,2.50
2022-10-05T09:40:30.155Z,2.70
2022-10-05T09:43:20.867Z,2.70
2022-10-05T09:46:02.845Z,2.70
2022-10-05T09:48:41.674Z,3.20
2022-10-05T09:51:27.084Z,2.45
2022-10-05T09:54:33.697Z,2.50
2022-10-05T09:57:15.219Z,2.63
2022-10-05T10:00:03.264Z,2.97
2022-10-05T10:02:52.447Z,2.70
2022-10-05T10:05:51.342Z,2.80
2022-10-05T10:08:25.319Z,2.70
2022-10-05T10:10:56.798Z,2.85
2022-10-05T10:13:30.032Z,2.70
2022-10-05T10:16:02.516Z,2.60
2022-10-05T10:18:50.600Z,2.40
2022-10-05T10:21:23.262Z,2.60
2022-10-05T10:24:14.832Z,2.78
2022-10-05T10:27:02.866Z,2.85
2022-10-05T10:30:03.737Z,2.55
2022-10-05T10:32:42.479Z,2.63
2022-10-05T10:35:44.895Z,2.55
2022-10-05T10:38:40.091Z,2.70
2022-10-05T10:41:31.480Z,2.90
2022-10-05T10:44:22.721Z,2.33
2022-10-05T10:47:28.188Z,2.50
2022-10-05T10:50:05.084Z,2.90
2022-10-05T10:52:40.699Z,2.70
2022-10-05T10:55:35.457Z,2.53
2022-10-05T10:58:23.098Z,2.92
2022-10-05T11:01:24.475Z,2.53
2022-10-05T11:04:21.992Z,2.10
2022-10-05T11:07:26.167Z,2.53
2022-10-05T11:10:20.106Z,2.80
2022-10-05T11:12:58.663Z,2.30
2022-10-05T11:16:02.169Z,2.50
2022-10-05T11:21:55.419Z,2.80
2022-10-05T11:24:38.731Z,2.30
2022-10-05T11:27:16.337Z,2.40
2022-10-05T11:30:04.303Z,2.10
2022-10-05T11:33:03.392Z,2.20
2022-10-05T11:35:34.246Z,2.00
2022-10-05T11:38:06.511Z,2.63
2022-10-05T11:40:47.746Z,2.35
2022-10-05T11:43:32.806Z,2.10
2022-10-05T11:46:14.996Z,1.90
2022-10-05T11:49:01.927Z,2.20
2022-10-05T11:51:44.175Z,3.00
2022-10-05T11:57:34.992Z,3.25
2022-10-05T12:00:10.979Z,3.28
2022-10-05T12:03:14.333Z,3.20
2022-10-05T12:06:05.871Z,2.88
2022-10-05T12:08:53.722Z,2.92
2022-10-05T12:11:25.935Z,2.88
2022-10-05T12:13:58.606Z,3.20
2022-10-05T12:16:34.310Z,3.22
2022-10-05T12:19:18.622Z,2.92
2022-10-05T12:21:52.240Z,2.70
2022-10-05T12:24:30.455Z,2.58
2022-10-05T12:27:12.057Z,2.60
2022-10-05T12:29:49.792Z,2.33
2022-10-05T12:32:22.819Z,2.10
2022-10-05T12:35:30.013Z,2.78
2022-10-05T12:38:15.692Z,2.80
2022-10-05T12:40:52.894Z,2.90
2022-10-05T12:43:42.669Z,2.92
2022-10-05T12:46:17.869Z,3.20
2022-10-05T12:48:59.754Z,2.90
2022-10-05T12:51:52.147Z,3.50
2022-10-05T12:54:49.573Z,2.90
2022-10-05T12:57:18.960Z,2.60
2022-10-05T13:00:02.359Z,2.97
2022-10-05T13:03:01.240Z,2.90
2022-10-05T13:05:35.887Z,2.58
2022-10-05T13:08:14.482Z,3.42
2022-10-05T13:11:14.777Z,2.78
2022-10-05T13:14:16.566Z,2.55
2022-10-05T13:16:54.726Z,2.22
2022-10-05T13:19:24.723Z,2.58
2022-10-05T13:22:14.634Z,2.45
2022-10-05T13:25:07.312Z,2.13
2022-10-05T13:28:00.048Z,2.42
2022-10-05T13:30:27.299Z,2.38
2022-10-05T13:33:05.109Z,2.42
2022-10-05T13:36:04.998Z,2.30
2022-10-05T13:38:58.582Z,2.33
2022-10-05T13:41:34.392Z,2.60
2022-10-05T13:44:28.937Z,2.33
2022-10-05T13:47:21.005Z,2.30
2022-10-05T13:50:03.534Z,1.90
2022-10-05T13:52:51.250Z,2.00
2022-10-05T13:55:33.114Z,2.03
2022-10-05T13:58:08.665Z,2.40
2022-10-05T14:00:53.143Z,2.30
2022-10-05T14:03:40.039Z,2.08
2022-10-05T14:06:14.575Z,2.28
2022-10-05T14:08:51.820Z,2.20
2022-10-05T14:11:26.604Z,2.03
2022-10-05T14:14:10.490Z,2.40
2022-10-05T14:16:57.618Z,2.25
2022-10-05T14:19:24.312Z,2.13
2022-10-05T14:22:01.576Z,2.60
2022-10-05T14:24:46.127Z,2.60
2022-10-05T14:27:27.857Z,2.60
2022-10-05T14:29:56.476Z,2.83
2022-10-05T14:32:25.163Z,3.20
2022-10-05T14:34:57.728Z,3.20
2022-10-05T14:37:31.204Z,3.58
2022-10-05T14:40:21.271Z,3.28
2022-10-05T14:42:48.370Z,3.42
2022-10-05T14:45:21.639Z,3.60
2022-10-05T14:47:52.641Z,3.80
2022-10-05T14:50:26.215Z,3.58
2022-10-05T14:53:11.145Z,3.72
2022-10-05T14:55:47.003Z,3.10
2022-10-05T14:58:33.163Z,3.15
2022-10-05T15:01:10.185Z,3.15
2022-10-05T15:04:14.648Z,3.53
2022-10-05T15:07:04.446Z,3.53
2022-10-05T15:09:55.844Z,3.90
2022-10-05T15:12:32.003Z,3.60
2022-10-05T15:15:39.805Z,3.50
2022-10-05T15:18:16.798Z,4.05
2022-10-05T15:20:46.002Z,3.70
2022-10-05T15:23:24.940Z,3.55
2022-10-05T15:26:07.831Z,3.45
2022-10-05T15:28:48.416Z,4.13
2022-10-05T15:31:46.714Z,3.17
2022-10-05T15:34:36.196Z,3.90
2022-10-05T15:37:21.135Z,3.10
2022-10-05T15:39:59.208Z,3.60
2022-10-05T15:42:38.370Z,3.58
2022-10-05T15:45:30.084Z,3.65
2022-10-05T15:48:03.060Z,3.90
2022-10-05T15:53:14.561Z,3.80
2022-10-05T15:55:59.879Z,3.58
2022-10-05T15:59:00.033Z,3.90
2022-10-05T16:01:43.578Z,4.50
2022-10-05T16:04:51.987Z,5.35
2022-10-05T16:07:47.737Z,4.30
2022-10-05T16:10:21.612Z,5.97
2022-10-05T16:13:19.153Z,4.22
2022-10-05T16:16:08.065Z,3.30
2022-10-05T16:19:12.604Z,4.15
2022-10-05T16:22:06.754Z,4.15
2022-10-05T16:25:08.939Z,9.43
2022-10-05T16:28:21.820Z,4.30
2022-10-05T16:30:58.755Z,3.20
2022-10-05T16:33:56.386Z,2.47
2022-10-05T16:36:41.040Z,2.78
2022-10-05T16:39:25.648Z,3.20
2022-10-05T16:42:05.479Z,3.33
2022-10-05T16:45:19.965Z,3.67
2022-10-05T16:48:13.487Z,3.38
2022-10-05T16:53:43.905Z,3.35
2022-10-05T16:56:18.018Z,3.22
2022-10-05T16:59:32.135Z,3.20
2022-10-05T17:02:23.614Z,3.40
2022-10-05T17:05:20.101Z,3.50
2022-10-05T17:07:58.760Z,3.63
2022-10-05T17:10:35.916Z,3.63
2022-10-05T17:13:16.289Z,3.70
2022-10-05T17:16:03.445Z,3.63
2022-10-05T17:18:39.239Z,3.30
2022-10-05T17:21:11.535Z,3.40
2022-10-05T17:23:55.165Z,3.63
2022-10-05T17:27:02.505Z,3.67
2022-10-05T17:29:51.412Z,3.53
2022-10-05T17:32:17.928Z,3.25
2022-10-05T17:35:00.544Z,3.30
2022-10-05T17:37:27.079Z,3.78
2022-10-05T17:39:57.811Z,2.95
2022-10-05T17:42:30.167Z,5.15
2022-10-05T17:45:12.159Z,13.70
2022-10-05T17:48:34.387Z,5.55
2022-10-05T17:51:19.467Z,3.80
2022-10-05T17:54:05.763Z,3.55
2022-10-05T17:56:55.619Z,3.80
2022-10-05T17:59:55.638Z,4.80
2022-10-05T18:02:38.515Z,3.50
2022-10-05T18:05:05.122Z,3.28
2022-10-05T18:07:33.962Z,4.30
2022-10-05T18:10:09.670Z,3.80
2022-10-05T18:12:36.200Z,4.43
2022-10-05T18:15:22.294Z,3.83
2022-10-05T18:17:58.147Z,4.10
2022-10-05T18:20:25.551Z,3.72
2022-10-05T18:23:06.128Z,6.47
2022-10-05T18:25:52.983Z,4.30
2022-10-05T18:29:13.958Z,4.00
2022-10-05T18:32:01.278Z,4.30
2022-10-05T18:34:30.582Z,4.10
2022-10-05T18:37:12.297Z,3.50
2022-10-05T18:39:58.283Z,4.43
2022-10-05T18:43:06.367Z,3.85
2022-10-05T18:45:51.471Z,3.63
2022-10-05T18:48:39.867Z,3.35
2022-10-05T18:51:41.379Z,3.20
2022-10-05T18:54:25.147Z,3.30
2022-10-05T18:56:53.202Z,3.55
2022-10-05T18:59:49.498Z,3.60
2022-10-05T19:02:25.024Z,3.72
2022-10-05T19:05:47.025Z,3.25
2022-10-05T19:08:34.326Z,3.00
2022-10-05T19:11:25.852Z,3.70
2022-10-05T19:14:24.483Z,3.42
2022-10-05T19:17:09.644Z,3.28
2022-10-05T19:19:57.742Z,4.20
2022-10-05T19:22:51.447Z,7.47
2022-10-05T19:27:59.719Z,3.22
2022-10-05T19:30:35.276Z,2.50
2022-10-05T19:33:26.704Z,2.85
2022-10-05T19:36:11.836Z,2.95
2022-10-05T19:38:57.823Z,2.50
2022-10-05T19:41:55.306Z,2.40
2022-10-05T19:44:46.614Z,2.33
2022-10-05T19:47:31.681Z,4.10
2022-10-05T19:50:01.987Z,3.15
2022-10-05T19:52:43.405Z,2.50
2022-10-05T19:55:26.440Z,2.33
2022-10-05T19:57:55.970Z,3.20
2022-10-05T20:00:31.375Z,2.72
2022-10-05T20:03:12.155Z,2.22
2022-10-05T20:05:40.058Z,2.15
2022-10-05T20:08:07.599Z,2.10
2022-10-05T20:10:34.393Z,2.20
2022-10-05T20:13:04.051Z,2.20
2022-10-05T20:15:54.933Z,2.53
2022-10-05T20:18:55.375Z,5.72
2022-10-05T20:21:46.378Z,2.60
2022-10-05T20:24:48.961Z,2.05
2022-10-05T20:27:42.951Z,2.05
2022-10-05T20:30:11.963Z,1.80
2022-10-05T20:32:38.673Z,1.80
2022-10-05T20:35:07.008Z,1.95
2022-10-05T20:37:33.774Z,1.83
2022-10-05T20:40:00.418Z,2.10
2022-10-05T20:42:26.966Z,1.75
2022-10-05T20:44:56.907Z,2.00
2022-10-05T20:47:25.022Z,2.10
2022-10-05T20:49:53.400Z,1.70
2022-10-05T20:52:20.729Z,1.92
2022-10-05T20:54:47.326Z,1.77
2022-10-05T20:57:14.082Z,2.28
2022-10-05T20:59:40.796Z,1.95
2022-10-05T21:02:07.431Z,1.80
2022-10-05T21:04:41.643Z,1.85
2022-10-05T21:07:08.702Z,2.17
2022-10-05T21:09:38.336Z,1.63
2022-10-05T21:12:05.280Z,1.63
2022-10-05T21:14:34.377Z,1.70
2022-10-05T21:17:02.035Z,2.00
2022-10-05T21:19:29.556Z,1.77
2022-10-05T21:21:59.530Z,1.40
2022-10-05T21:24:26.346Z,1.50
2022-10-05T21:26:56.838Z,1.60
2022-10-05T21:29:23.438Z,1.35
2022-10-05T21:31:50.130Z,1.70
2022-10-05T21:34:16.856Z,1.98
2022-10-05T21:36:43.415Z,1.60
2022-10-05T21:39:10.044Z,1.60
2022-10-05T21:41:36.666Z,1.50
2022-10-05T21:44:04.143Z,1.30
2022-10-05T21:46:31.635Z,1.40
2022-10-05T21:48:58.254Z,1.52
2022-10-05T21:51:26.318Z,1.42
2022-10-05T21:53:59.451Z,1.38
2022-10-05T21:56:31.234Z,1.35
2022-10-05T21:58:59.281Z,1.45
2022-10-05T22:01:25.993Z,1.50
2022-10-05T22:03:52.653Z,1.40
2022-10-05T22:06:19.272Z,1.60
2022-10-05T22:08:46.097Z,1.27
2022-10-05T22:11:17.946Z,1.13
2022-10-05T22:13:47.814Z,1.02
2022-10-05T22:16:16.533Z,1.10
2022-10-05T22:18:43.585Z,1.38
2022-10-05T22:21:12.404Z,1.40
2022-10-05T22:23:40.810Z,1.30
2022-10-05T22:26:09.290Z,1.40
2022-10-05T22:28:37.221Z,1.50
2022-10-05T22:31:06.550Z,1.35
2022-10-05T22:33:33.329Z,1.17
2022-10-05T22:36:00.601Z,1.30
2022-10-05T22:38:28.068Z,1.35
2022-10-05T22:40:54.780Z,1.30
2022-10-05T22:43:21.414Z,1.30
2022-10-05T22:45:48.127Z,2.10
2022-10-05T22:48:15.771Z,1.33
2022-10-05T22:50:46.519Z,1.30
2022-10-05T22:53:13.947Z,1.08
2022-10-05T22:55:40.865Z,1.33
2022-10-05T22:58:07.461Z,1.30
2022-10-05T23:00:56.357Z,1.30
2022-10-05T23:03:20.738Z,1.10
2022-10-05T23:05:47.322Z,1.00
2022-10-05T23:08:13.884Z,1.38
2022-10-05T23:10:40.476Z,1.25
2022-10-05T23:13:08.764Z,1.50
2022-10-05T23:15:35.912Z,1.15
2022-10-05T23:18:02.462Z,1.60
2022-10-05T23:20:29.175Z,1.60
2022-10-05T23:22:55.730Z,1.30
2022-10-05T23:25:22.351Z,1.40
2022-10-05T23:27:49.235Z,1.35
2022-10-05T23:30:15.846Z,1.33
2022-10-05T23:32:44.323Z,1.23
2022-10-05T23:35:12.826Z,1.33
2022-10-05T23:37:44.286Z,1.45
2022-10-05T23:40:14.224Z,1.10
2022-10-05T23:42:41.584Z,1.13
2022-10-05T23:45:10.337Z,1.38
2022-10-05T23:47:37.960Z,1.40
2022-10-05T23:50:07.056Z,1.40
2022-10-05T23:52:34.665Z,1.65
2022-10-05T23:55:05.475Z,1.30
2022-10-05T23:57:32.338Z,1.52
2022-10-05T23:59:58.998Z,1.77
